Terminal Aerodrome Forecast
Issued by NWS Twin Cities, MN

Home | Current Version | Previous Version | Graphics & Text | Print | Product List | Glossary On
Versions: 1 2 3 4 5 6 7 8 9 10 11 12 13 14 15 16 17 18 19 20 21
000
FTUS43 KMPX 310400 AAA
TAFEAU
TAF AMD
KEAU 310401Z 3104/3124 00000KT 1/4SM FG VV002
     FM311500 14008KT 6SM BR BKN015
     FM311700 15014KT P6SM SCT025 BKN100=

USA.gov is the U.S. government's official web portal to all federal, state and local government web resources and services.